Terminal Aerodrome Forecast
Issued by NWS Pueblo, CO

Home | Current Version | Previous Version | Text Only | Print | Product List | Glossary On
Versions: 1 2 3 4 5 6 7 8 9 10 11 12 13 14 15 16 17 18 19 20 21 22 23 24 25 26 27 28 29 30 31 32 33 34 35 36 37
000
FTUS45 KPUB 311600 AAB
TAFPUB
TAF AMD
KPUB 311600Z 3116/0112 VRB06KT 4SM BR BKN001
     FM311700 11006KT P6SM FEW002 OVC040
     FM312200 34008KT P6SM VCSH SCT020 OVC040
     FM010000 01014KT 4SM -SHSN BR BKN020=

USA.gov is the U.S. government's official web portal to all federal, state and local government web resources and services.